Terminal Aerodrome Forecast
Issued by NWS

Home | Current Version | Previous Version | Graphics & Text | Print | Product List | Glossary On
Versions: 1 2 3 4 5 6 7 8 9 10 11 12 13 14 15 16
000
FTUS43 KMPX 231138
TAFRWF
TAF
KRWF 231138Z 2312/2412 18014KT P6SM FEW250
     FM231500 18019G28KT P6SM BKN150 PROB30 2321/2402 4SM -TSRA
      OVC035CB
     FM240200 16010KT P6SM OVC050 PROB30 2405/2409 -TSRA OVC030CB
     FM240900 30006KT P6SM SCT050=

USA.gov is the U.S. government's official web portal to all federal, state and local government web resources and services.